Ukkel, België

12:02 PM CET op 26 november 2014 (GMT +0100)
Brussels National | Change Station
CLOSE
Current Station
Luchthaven
Location: Brussels,
Geometrische hoogte: 190 ft
Nabije weerstations

Hoogte 190 ft 50.90 °N, 4.53 °E | Updated 12 minutes ago

Light Rain
Lichte regen
45 °F
Voelt als 41 °F
N
6
Wind Variabel Wind van oost

Vandaag
Hoog -- | Laag -- °F
--% Kans op neerslag
Gisteren
Hoog -- | Laag -- °F
Precip. -- inches
8:15 AM 4:43 PM
Wassende halvemaan, 18% visible
Druk 29.92 inches
Zicht 3.7 mijlen
Wolken Merendeels bewolkt 2000 ft
Gevoelstemperatuur 41 °F
Dauwpunt 41 °F
Vochtigheid 87%
Neerslag 0.00 inches
Dikte sneeuw Niet beschikbaar.
UV 1 van de 12
Pollen Niet beschikbaar.
Luchtkwaliteit Niet beschikbaar.
Flu Activity Niet beschikbaar.
METAR EBBR 261050Z 10005KT 070V130 6000 -RA BKN020 07/05 Q1013 BECMG 4500 BR

More Conditions Fewer Conditions

Druk 29.92 inches
Zicht 3.7 mijlen
Wolken Merendeels bewolkt 2000 ft
Gevoelstemperatuur 41 °F
Dauwpunt 41 °F
Vochtigheid 87%
Neerslag 0.00 inches
Dikte sneeuw Niet beschikbaar.
UV 1 van de 12
Pollen Niet beschikbaar.
Luchtkwaliteit Niet beschikbaar.
Flu Activity Niet beschikbaar.
METAR EBBR 261050Z 10005KT 070V130 6000 -RA BKN020 07/05 Q1013 BECMG 4500 BR

More Conditions Fewer Conditions

10-Day Weather Forecast

Almanac

Astronomie

Nov. 26, 2014 Opkomst Ondergang
Werkelijke tijd
Burgerlijke schemering
Nautische schemering
Astronomische schemering
Maan
Golflengte van het zichtbare licht
Daglengte
Tomorrow will be .
, % of the Moon is Illuminated

Extremen vandaag

Country Highs Country Lows

Community

WunderPhotos

Upload Photos

1,773,708 foto’s ge-upload!

WunderBlogs® & News

Nearby

Luchtkwaliteit

  Luchtkwaliteit LK-index Verontreinigende stof
Not available.

Dikte sneeuw

Station Depth Geometrische hoogte

Aardbevingen

Stad Distance Mag. Time & Date
Minimum magnitude displayed is 2.5.

Watertemperatuur langs de kust

Plaats Temperatuur

Nabije weerstations